createdAt,value
2023-02-08T00:01:29.540Z,103075.75
2023-02-08T00:03:57.965Z,103081.00
2023-02-08T00:06:26.347Z,103078.47
2023-02-08T00:08:54.708Z,103079.25
2023-02-08T00:11:24.699Z,103083.66
2023-02-08T00:13:53.104Z,103080.16
2023-02-08T00:16:21.545Z,103082.69
2023-02-08T00:18:50.219Z,103079.56
2023-02-08T00:21:22.050Z,103074.50
2023-02-08T00:23:50.634Z,103078.75
2023-02-08T00:26:21.167Z,103077.31
2023-02-08T00:28:50.909Z,103076.50
2023-02-08T00:31:19.423Z,103068.34
2023-02-08T00:33:48.055Z,103058.97
2023-02-08T00:36:16.775Z,103062.97
2023-02-08T00:38:45.576Z,103056.53
2023-02-08T00:41:14.442Z,103054.13
2023-02-08T00:43:43.234Z,103050.63
2023-02-08T00:46:13.145Z,103051.78
2023-02-08T00:48:41.859Z,103045.97
2023-02-08T00:51:13.545Z,103046.44
2023-02-08T00:53:44.173Z,103043.66
2023-02-08T00:56:14.277Z,103046.44
2023-02-08T00:58:43.743Z,103041.81
2023-02-08T01:01:14.844Z,103044.91
2023-02-08T01:03:44.125Z,103044.50
2023-02-08T01:06:15.758Z,103034.09
2023-02-08T01:08:46.187Z,103032.38
2023-02-08T01:11:21.771Z,103035.63
2023-02-08T01:13:51.120Z,103034.91
2023-02-08T01:16:24.719Z,103035.22
2023-02-08T01:18:58.209Z,103035.22
2023-02-08T01:21:29.892Z,103036.78
2023-02-08T01:23:59.287Z,103037.03
2023-02-08T01:26:28.323Z,103029.97
2023-02-08T01:28:57.689Z,103035.78
2023-02-08T01:31:31.072Z,103034.69
2023-02-08T01:34:02.343Z,103029.31
2023-02-08T01:36:33.239Z,103036.38
2023-02-08T01:39:02.811Z,103029.03
2023-02-08T01:41:34.879Z,103023.94
2023-02-08T01:44:08.940Z,103017.47
2023-02-08T01:46:41.240Z,103016.06
2023-02-08T01:49:13.823Z,103027.88
2023-02-08T01:51:46.350Z,103032.13
2023-02-08T01:54:18.138Z,103026.19
2023-02-08T01:56:48.374Z,103016.91
2023-02-08T01:59:22.636Z,103012.69
2023-02-08T02:01:54.901Z,103015.53
2023-02-08T02:04:24.067Z,103009.84
2023-02-08T02:06:57.065Z,103021.41
2023-02-08T02:09:32.330Z,103006.66
2023-02-08T02:12:01.952Z,103014.97
2023-02-08T02:14:30.672Z,103011.59
2023-02-08T02:17:04.764Z,103018.63
2023-02-08T02:19:41.910Z,103016.56
2023-02-08T02:22:40.723Z,103005.75
2023-02-08T02:25:46.846Z,103005.63
2023-02-08T02:28:40.453Z,102997.88
2023-02-08T02:34:14.762Z,103009.97
2023-02-08T02:36:51.521Z,103008.88
2023-02-08T02:39:30.385Z,102999.03
2023-02-08T02:42:29.369Z,102998.88
2023-02-08T02:45:14.031Z,102994.81
2023-02-08T02:47:53.022Z,102996.78
2023-02-08T02:50:34.229Z,102996.78
2023-02-08T02:53:10.804Z,102987.78
2023-02-08T02:55:51.680Z,103002.09
2023-02-08T02:58:23.758Z,102998.28
2023-02-08T03:00:56.958Z,102991.69
2023-02-08T03:03:31.809Z,102995.22
2023-02-08T03:06:07.872Z,102994.94
2023-02-08T03:09:04.628Z,102991.88
2023-02-08T03:11:37.839Z,103005.41
2023-02-08T03:14:33.137Z,102995.84
2023-02-08T03:17:20.703Z,102997.66
2023-02-08T03:20:06.535Z,102993.03
2023-02-08T03:22:49.466Z,102998.78
2023-02-08T03:25:24.928Z,102992.59
2023-02-08T03:28:05.235Z,102995.56
2023-02-08T03:30:46.350Z,103004.28
2023-02-08T03:33:19.926Z,103001.19
2023-02-08T03:35:53.256Z,103000.91
2023-02-08T03:38:28.650Z,103002.47
2023-02-08T03:41:00.460Z,102998.81
2023-02-08T03:43:35.291Z,102994.72
2023-02-08T03:46:08.594Z,103004.84
2023-02-08T03:48:41.777Z,103009.91
2023-02-08T03:51:11.269Z,103001.34
2023-02-08T03:53:46.200Z,103000.50
2023-02-08T03:56:19.756Z,103003.88
2023-02-08T03:58:56.972Z,102999.63
2023-02-08T04:01:30.845Z,103003.72
2023-02-08T04:04:01.134Z,103003.59
2023-02-08T04:06:30.208Z,103004.44
2023-02-08T04:09:00.237Z,103004.44
2023-02-08T04:11:28.819Z,103009.78
2023-02-08T04:13:57.307Z,103022.44
2023-02-08T04:16:25.875Z,103017.38
2023-02-08T04:18:54.537Z,103019.91
2023-02-08T04:21:27.384Z,103014.28
2023-02-08T04:23:56.012Z,103013.28
2023-02-08T04:26:25.922Z,103019.19
2023-02-08T04:28:54.653Z,103010.47
2023-02-08T04:31:23.253Z,103012.03
2023-02-08T04:33:51.818Z,103017.09
2023-02-08T04:36:20.435Z,103010.34
2023-02-08T04:38:48.914Z,103019.34
2023-02-08T04:41:17.920Z,103021.06
2023-02-08T04:43:47.880Z,103023.31
2023-02-08T04:46:16.431Z,103018.91
2023-02-08T04:48:45.015Z,103013.16
2023-02-08T04:51:13.554Z,103009.78
2023-02-08T04:53:42.396Z,103017.38
2023-02-08T04:56:10.835Z,103015.44
2023-02-08T04:58:39.422Z,103020.22
2023-02-08T05:01:10.782Z,103016.53
2023-02-08T05:03:39.640Z,103011.31
2023-02-08T05:06:08.549Z,103016.13
2023-02-08T05:08:37.243Z,103023.03
2023-02-08T05:11:06.081Z,103021.34
2023-02-08T05:13:34.543Z,103018.81
2023-02-08T05:16:03.361Z,103020.63
2023-02-08T05:18:33.265Z,103021.16
2023-02-08T05:21:03.889Z,103019.06
2023-02-08T05:23:33.303Z,103015.31
2023-02-08T05:26:01.798Z,103005.88
2023-02-08T05:28:30.428Z,103015.00
2023-02-08T05:30:58.938Z,103022.75
2023-02-08T05:33:27.436Z,103025.69
2023-02-08T05:35:57.238Z,103027.81
2023-02-08T05:38:25.625Z,103021.75
2023-02-08T05:40:54.157Z,103022.19
2023-02-08T05:43:22.556Z,103028.66
2023-02-08T05:45:51.298Z,103026.13
2023-02-08T05:48:20.294Z,103023.88
2023-02-08T05:50:48.782Z,103028.38
2023-02-08T05:53:21.725Z,103029.78
2023-02-08T05:55:50.480Z,103032.31
2023-02-08T05:58:18.876Z,103038.50
2023-02-08T06:00:47.251Z,103032.31
2023-02-08T06:03:15.743Z,103047.22
2023-02-08T06:05:46.544Z,103037.53
2023-02-08T06:08:15.612Z,103042.88
2023-02-08T06:10:45.938Z,103049.47
2023-02-08T06:13:19.311Z,103031.19
2023-02-08T06:15:48.168Z,103043.84
2023-02-08T06:18:18.602Z,103036.81
2023-02-08T06:20:47.267Z,103043.25
2023-02-08T06:23:15.721Z,103029.34
2023-02-08T06:25:45.438Z,103028.38
2023-02-08T06:28:14.103Z,103025.53
2023-02-08T06:30:43.048Z,103019.50
2023-02-08T06:33:13.391Z,103026.28
2023-02-08T06:35:45.978Z,103018.81
2023-02-08T06:38:14.972Z,103019.09
2023-02-08T06:40:47.157Z,103023.31
2023-02-08T06:43:15.846Z,103016.69
2023-02-08T06:45:45.813Z,103016.13
2023-02-08T06:48:14.526Z,103007.56
2023-02-08T06:50:43.315Z,103004.19
2023-02-08T06:53:12.277Z,103008.41
2023-02-08T06:55:40.900Z,103005.31
2023-02-08T06:58:11.176Z,103006.44
2023-02-08T07:00:40.310Z,103006.16
2023-02-08T07:03:10.226Z,103005.72
2023-02-08T07:05:39.321Z,102998.13
2023-02-08T07:08:08.395Z,102999.66
2023-02-08T07:10:39.527Z,102998.78
2023-02-08T07:13:08.479Z,102995.69
2023-02-08T07:15:38.373Z,102995.41
2023-02-08T07:18:06.994Z,103001.31
2023-02-08T07:20:35.485Z,103002.13
2023-02-08T07:23:04.293Z,102994.75
2023-02-08T07:25:32.666Z,102994.06
2023-02-08T07:28:01.197Z,102991.63
2023-02-08T07:30:29.717Z,102989.19
2023-02-08T07:33:00.191Z,102980.84
2023-02-08T07:35:28.594Z,102978.94
2023-02-08T07:37:57.057Z,102978.50
2023-02-08T07:40:25.434Z,102974.66
2023-02-08T07:42:53.872Z,102981.38
2023-02-08T07:45:22.459Z,102979.88
2023-02-08T07:47:51.005Z,102971.88
2023-02-08T07:50:20.816Z,102977.16
2023-02-08T07:52:49.311Z,102982.16
2023-02-08T07:55:19.049Z,102977.81
2023-02-08T07:57:49.106Z,102979.16
2023-02-08T08:00:19.870Z,102979.53
2023-02-08T08:02:50.455Z,102975.94
2023-02-08T08:05:21.045Z,102979.25
2023-02-08T08:07:49.556Z,102983.16
2023-02-08T08:10:18.201Z,102985.00
2023-02-08T08:12:46.641Z,102987.09
2023-02-08T08:15:15.187Z,102968.72
2023-02-08T08:17:43.669Z,102973.31
2023-02-08T08:20:12.669Z,102971.06
2023-02-08T08:22:42.744Z,102979.00
2023-02-08T08:25:11.261Z,102985.31
2023-02-08T08:27:40.127Z,102974.94
2023-02-08T08:30:10.094Z,102979.63
2023-02-08T08:32:38.974Z,102975.16
2023-02-08T08:35:08.373Z,102972.06
2023-02-08T08:37:37.685Z,102967.28
2023-02-08T08:40:09.616Z,102964.59
2023-02-08T08:42:39.788Z,102964.25
2023-02-08T08:45:09.341Z,102962.09
2023-02-08T08:47:42.323Z,102957.00
2023-02-08T08:50:12.476Z,102951.81
2023-02-08T08:52:42.664Z,102946.50
2023-02-08T08:55:16.081Z,102950.88
2023-02-08T08:57:44.561Z,102951.84
2023-02-08T09:00:13.967Z,102955.84
2023-02-08T09:02:42.437Z,102965.31
2023-02-08T09:05:10.912Z,102959.25
2023-02-08T09:07:39.524Z,102959.28
2023-02-08T09:10:09.246Z,102957.25
2023-02-08T09:12:38.971Z,102957.66
2023-02-08T09:15:08.059Z,102952.31
2023-02-08T09:17:36.681Z,102951.19
2023-02-08T09:20:06.653Z,102949.13
2023-02-08T09:22:35.161Z,102944.44
2023-02-08T09:25:04.314Z,102941.53
2023-02-08T09:27:32.827Z,102948.41
2023-02-08T09:30:02.674Z,102953.88
2023-02-08T09:32:33.948Z,102956.28
2023-02-08T09:35:03.219Z,102956.41
2023-02-08T09:37:31.792Z,102952.97
2023-02-08T09:40:00.666Z,102960.19
2023-02-08T09:42:39.217Z,102966.38
2023-02-08T09:45:31.060Z,102965.88
2023-02-08T09:48:05.105Z,102965.56
2023-02-08T09:50:39.466Z,102979.66
2023-02-08T09:53:14.849Z,102972.75
2023-02-08T09:55:47.583Z,102968.94
2023-02-08T09:58:25.169Z,102960.22
2023-02-08T10:00:56.333Z,102960.16
2023-02-08T10:03:32.289Z,102961.06
2023-02-08T10:06:01.673Z,102957.28
2023-02-08T10:08:35.212Z,102952.69
2023-02-08T10:11:15.650Z,102944.47
2023-02-08T10:14:19.383Z,102951.97
2023-02-08T10:17:01.032Z,102953.56
2023-02-08T10:19:46.872Z,102962.53
2023-02-08T10:22:30.583Z,102962.50
2023-02-08T10:25:28.946Z,102951.31
2023-02-08T10:28:22.493Z,102949.47
2023-02-08T10:30:57.164Z,102949.28
2023-02-08T10:33:36.884Z,102947.53
2023-02-08T10:36:15.447Z,102939.22
2023-02-08T10:38:46.871Z,102935.94
2023-02-08T10:41:21.319Z,102940.78
2023-02-08T10:43:57.497Z,102942.75
2023-02-08T10:46:33.229Z,102934.50
2023-02-08T10:49:09.250Z,102942.00
2023-02-08T10:51:38.103Z,102934.88
2023-02-08T10:54:06.943Z,102941.75
2023-02-08T10:56:45.015Z,102938.69
2023-02-08T10:59:21.068Z,102937.53
2023-02-08T11:01:50.998Z,102937.28
2023-02-08T11:04:21.585Z,102928.75
2023-02-08T11:06:54.107Z,102919.78
2023-02-08T11:09:25.480Z,102914.59
2023-02-08T11:11:55.058Z,102910.78
2023-02-08T11:14:41.017Z,102902.06
2023-02-08T11:17:26.848Z,102906.47
2023-02-08T11:19:57.714Z,102901.47
2023-02-08T11:22:30.913Z,102897.47
2023-02-08T11:25:01.051Z,102895.09
2023-02-08T11:27:34.967Z,102893.53
2023-02-08T11:30:24.802Z,102882.31
2023-02-08T11:33:15.865Z,102886.38
2023-02-08T11:35:55.821Z,102886.59
2023-02-08T11:38:27.316Z,102878.41
2023-02-08T11:40:58.228Z,102875.59
2023-02-08T11:43:30.890Z,102883.44
2023-02-08T11:46:01.831Z,102870.59
2023-02-08T11:48:39.611Z,102875.75
2023-02-08T11:51:13.702Z,102872.66
2023-02-08T11:53:49.196Z,102881.91
2023-02-08T11:56:20.906Z,102868.25
2023-02-08T11:59:20.516Z,102866.66
2023-02-08T12:01:49.327Z,102868.38
2023-02-08T12:04:19.255Z,102855.53
2023-02-08T12:07:21.189Z,102848.59
2023-02-08T12:10:13.229Z,102855.22
2023-02-08T12:12:57.507Z,102852.28
2023-02-08T12:15:44.986Z,102844.03
2023-02-08T12:18:30.052Z,102848.66
2023-02-08T12:21:06.608Z,102837.91
2023-02-08T12:23:50.298Z,102830.72
2023-02-08T12:26:34.271Z,102842.28
2023-02-08T12:29:47.444Z,102829.88
2023-02-08T12:32:36.047Z,102826.66
2023-02-08T12:35:39.045Z,102826.50
2023-02-08T12:38:38.196Z,102822.19
2023-02-08T12:41:19.756Z,102819.75
2023-02-08T12:43:58.353Z,102810.03
2023-02-08T12:46:45.414Z,102805.00
2023-02-08T12:49:28.991Z,102806.50
2023-02-08T12:52:05.841Z,102800.78
2023-02-08T12:54:42.186Z,102798.91
2023-02-08T12:57:15.953Z,102797.25
2023-02-08T12:59:48.934Z,102798.38
2023-02-08T13:02:22.533Z,102794.94
2023-02-08T13:04:54.955Z,102783.81
2023-02-08T13:07:28.151Z,102781.53
2023-02-08T13:10:03.776Z,102782.72
2023-02-08T13:12:37.155Z,102776.56
2023-02-08T13:15:28.503Z,102772.75
2023-02-08T13:18:00.808Z,102778.34
2023-02-08T13:20:38.964Z,102770.38
2023-02-08T13:23:15.635Z,102768.56
2023-02-08T13:25:45.653Z,102759.88
2023-02-08T13:28:20.939Z,102762.22
2023-02-08T13:30:57.703Z,102751.31
2023-02-08T13:33:34.718Z,102746.16
2023-02-08T13:36:04.057Z,102743.22
2023-02-08T13:38:34.823Z,102725.91
2023-02-08T13:41:07.141Z,102719.84
2023-02-08T13:43:44.591Z,102718.22
2023-02-08T13:46:14.400Z,102711.16
2023-02-08T13:48:46.792Z,102706.50
2023-02-08T13:51:59.580Z,102707.22
2023-02-08T13:54:28.363Z,102697.69
2023-02-08T13:56:57.627Z,102694.41
2023-02-08T13:59:34.198Z,102700.22
2023-02-08T14:02:24.672Z,102693.06
2023-02-08T14:04:55.466Z,102688.97
2023-02-08T14:07:38.840Z,102694.44
2023-02-08T14:10:19.506Z,102687.03
2023-02-08T14:12:56.417Z,102686.13
2023-02-08T14:15:38.719Z,102682.44
2023-02-08T14:18:24.268Z,102682.97
2023-02-08T14:21:03.962Z,102676.38
2023-02-08T14:23:35.905Z,102678.59
2023-02-08T14:26:09.545Z,102674.84
2023-02-08T14:28:41.742Z,102677.25
2023-02-08T14:31:13.284Z,102671.25
2023-02-08T14:33:50.850Z,102663.63
2023-02-08T14:36:30.099Z,102658.66
2023-02-08T14:39:24.403Z,102653.53
2023-02-08T14:41:57.214Z,102651.28
2023-02-08T14:45:02.788Z,102647.34
2023-02-08T14:48:18.270Z,102646.72
2023-02-08T14:51:02.740Z,102641.88
2023-02-08T14:53:44.887Z,102641.44
2023-02-08T14:56:21.566Z,102636.38
2023-02-08T14:58:54.382Z,102634.09
2023-02-08T15:01:44.130Z,102639.81
2023-02-08T15:04:15.184Z,102628.41
2023-02-08T15:07:00.180Z,102635.91
2023-02-08T15:09:32.356Z,102622.72
2023-02-08T15:12:03.786Z,102618.94
2023-02-08T15:14:36.538Z,102623.66
2023-02-08T15:17:05.256Z,102624.25
2023-02-08T15:19:38.458Z,102618.22
2023-02-08T15:22:33.213Z,102617.09
2023-02-08T15:25:05.682Z,102618.59
2023-02-08T15:27:35.686Z,102619.28
2023-02-08T15:30:04.267Z,102612.16
2023-02-08T15:32:32.869Z,102617.59
2023-02-08T15:35:05.071Z,102612.41
2023-02-08T15:37:36.028Z,102610.22
2023-02-08T15:40:05.006Z,102609.78
2023-02-08T15:42:34.978Z,102604.91
2023-02-08T15:45:04.476Z,102616.63
2023-02-08T15:47:35.883Z,102611.91
2023-02-08T15:50:09.424Z,102611.28
2023-02-08T15:52:38.604Z,102598.19
2023-02-08T15:55:08.308Z,102600.09
2023-02-08T15:57:40.443Z,102598.69
2023-02-08T16:00:16.496Z,102595.22
2023-02-08T16:02:45.710Z,102589.22
2023-02-08T16:05:22.840Z,102588.47
2023-02-08T16:07:52.751Z,102583.06
2023-02-08T16:10:26.489Z,102580.63
2023-02-08T16:12:58.190Z,102582.94
2023-02-08T16:15:42.620Z,102575.44
2023-02-08T16:18:34.363Z,102573.41
2023-02-08T16:21:06.406Z,102568.59
2023-02-08T16:23:36.343Z,102563.22
2023-02-08T16:26:17.212Z,102571.31
2023-02-08T16:28:56.900Z,102566.28
2023-02-08T16:31:29.418Z,102571.88
2023-02-08T16:34:03.748Z,102567.88
2023-02-08T16:36:37.465Z,102564.06
2023-02-08T16:39:36.084Z,102570.22
2023-02-08T16:42:15.269Z,102563.09
2023-02-08T16:45:01.687Z,102571.50
2023-02-08T16:47:37.436Z,102555.66
2023-02-08T16:50:06.861Z,102564.09
2023-02-08T16:52:37.258Z,102552.00
2023-02-08T16:55:06.752Z,102548.00
2023-02-08T16:57:43.456Z,102547.25
2023-02-08T17:00:25.200Z,102554.72
2023-02-08T17:02:55.110Z,102554.44
2023-02-08T17:05:26.798Z,102549.09
2023-02-08T17:07:57.870Z,102555.72
2023-02-08T17:10:29.356Z,102550.66
2023-02-08T17:13:13.318Z,102537.81
2023-02-08T17:15:48.165Z,102537.63
2023-02-08T17:18:16.714Z,102536.97
2023-02-08T17:20:46.982Z,102529.53
2023-02-08T17:23:17.460Z,102533.69
2023-02-08T17:25:46.176Z,102530.50
2023-02-08T17:28:18.785Z,102525.28
2023-02-08T17:30:48.960Z,102523.44
2023-02-08T17:33:19.019Z,102524.00
2023-02-08T17:35:49.131Z,102525.78
2023-02-08T17:38:21.470Z,102522.38
2023-02-08T17:40:50.320Z,102526.00
2023-02-08T17:43:18.906Z,102523.09
2023-02-08T17:45:47.759Z,102519.94
2023-02-08T17:48:16.279Z,102517.53
2023-02-08T17:50:50.791Z,102512.50
2023-02-08T17:53:20.775Z,102518.31
2023-02-08T17:55:49.402Z,102522.78
2023-02-08T17:58:17.945Z,102513.13
2023-02-08T18:00:46.577Z,102511.94
2023-02-08T18:03:17.186Z,102499.94
2023-02-08T18:05:46.345Z,102504.69
2023-02-08T18:08:14.931Z,102505.44
2023-02-08T18:10:45.147Z,102501.31
2023-02-08T18:13:14.060Z,102500.69
2023-02-08T18:15:43.821Z,102495.47
2023-02-08T18:18:13.343Z,102498.72
2023-02-08T18:20:45.031Z,102511.25
2023-02-08T18:23:14.901Z,102505.75
2023-02-08T18:25:46.166Z,102495.56
2023-02-08T18:28:16.644Z,102498.25
2023-02-08T18:30:45.086Z,102491.91
2023-02-08T18:33:13.659Z,102490.25
2023-02-08T18:35:42.716Z,102488.88
2023-02-08T18:38:11.430Z,102493.00
2023-02-08T18:40:41.527Z,102483.31
2023-02-08T18:43:11.666Z,102485.34
2023-02-08T18:45:40.119Z,102482.63
2023-02-08T18:48:08.658Z,102477.75
2023-02-08T18:50:37.192Z,102479.19
2023-02-08T18:53:06.135Z,102481.53
2023-02-08T18:55:34.552Z,102482.53
2023-02-08T18:58:03.044Z,102478.25
2023-02-08T19:00:33.330Z,102477.59
2023-02-08T19:03:10.552Z,102470.91
2023-02-08T19:05:40.268Z,102474.97
2023-02-08T19:08:08.638Z,102471.66
2023-02-08T19:10:38.065Z,102477.38
2023-02-08T19:13:07.667Z,102478.06
2023-02-08T19:15:38.227Z,102475.81
2023-02-08T19:18:08.245Z,102470.88
2023-02-08T19:20:37.395Z,102478.28
2023-02-08T19:23:06.334Z,102469.81
2023-02-08T19:25:38.868Z,102476.28
2023-02-08T19:28:07.980Z,102474.41
2023-02-08T19:30:37.764Z,102468.00
2023-02-08T19:33:06.251Z,102468.06
2023-02-08T19:35:38.005Z,102467.53
2023-02-08T19:38:06.765Z,102474.34
2023-02-08T19:40:35.445Z,102471.84
2023-02-08T19:43:03.979Z,102469.03
2023-02-08T19:45:32.496Z,102465.69
2023-02-08T19:48:02.477Z,102467.63
2023-02-08T19:50:31.238Z,102467.47
2023-02-08T19:52:59.823Z,102467.94
2023-02-08T19:55:28.454Z,102475.97
2023-02-08T19:57:56.852Z,102468.97
2023-02-08T20:00:30.689Z,102475.69
2023-02-08T20:03:19.612Z,102472.78
2023-02-08T20:05:50.890Z,102474.16
2023-02-08T20:08:20.611Z,102473.06
2023-02-08T20:10:50.126Z,102476.75
2023-02-08T20:13:20.040Z,102485.06
2023-02-08T20:15:48.894Z,102483.09
2023-02-08T20:18:22.000Z,102487.41
2023-02-08T20:21:00.063Z,102488.00
2023-02-08T20:23:29.469Z,102482.94
2023-02-08T20:26:09.219Z,102486.09
2023-02-08T20:28:40.591Z,102494.81
2023-02-08T20:31:12.795Z,102496.50
2023-02-08T20:33:43.393Z,102497.19
2023-02-08T20:36:14.955Z,102491.94
2023-02-08T20:38:44.097Z,102490.97
2023-02-08T20:41:15.323Z,102487.25
2023-02-08T20:43:45.400Z,102484.25
2023-02-08T20:46:17.442Z,102482.91
2023-02-08T20:48:47.549Z,102480.91
2023-02-08T20:51:18.868Z,102488.31
2023-02-08T20:53:48.739Z,102483.94
2023-02-08T20:56:19.407Z,102489.72
2023-02-08T20:58:48.150Z,102487.72
2023-02-08T21:01:18.591Z,102502.00
2023-02-08T21:03:49.230Z,102502.88
2023-02-08T21:06:19.659Z,102505.78
2023-02-08T21:08:51.601Z,102502.13
2023-02-08T21:11:21.613Z,102505.31
2023-02-08T21:13:51.403Z,102509.69
2023-02-08T21:16:20.634Z,102503.97
2023-02-08T21:18:51.604Z,102504.34
2023-02-08T21:21:21.103Z,102500.63
2023-02-08T21:24:00.936Z,102495.59
2023-02-08T21:26:30.086Z,102493.13
2023-02-08T21:29:24.003Z,102501.69
2023-02-08T21:31:57.053Z,102496.66
2023-02-08T21:34:46.211Z,102497.31
2023-02-08T21:37:15.191Z,102503.34
2023-02-08T21:39:45.422Z,102496.47
2023-02-08T21:42:15.539Z,102493.13
2023-02-08T21:44:44.153Z,102492.63
2023-02-08T21:47:12.717Z,102499.84
2023-02-08T21:50:14.601Z,102489.31
2023-02-08T21:53:00.493Z,102487.78
2023-02-08T21:55:29.457Z,102483.09
2023-02-08T21:57:57.956Z,102474.13
2023-02-08T22:00:27.086Z,102477.88
2023-02-08T22:02:56.191Z,102474.13
2023-02-08T22:05:43.636Z,102470.66
2023-02-08T22:08:13.709Z,102473.78
2023-02-08T22:10:50.210Z,102471.41
2023-02-08T22:13:25.436Z,102463.44
2023-02-08T22:15:54.100Z,102463.63
2023-02-08T22:18:22.589Z,102460.66
2023-02-08T22:20:53.699Z,102460.28
2023-02-08T22:23:22.664Z,102461.00
2023-02-08T22:25:51.104Z,102453.63
2023-02-08T22:28:19.661Z,102461.63
2023-02-08T22:30:49.039Z,102462.44
2023-02-08T22:33:17.735Z,102469.44
2023-02-08T22:35:46.306Z,102468.81
2023-02-08T22:38:16.060Z,102462.28
2023-02-08T22:40:44.664Z,102469.72
2023-02-08T22:43:13.573Z,102469.75
2023-02-08T22:45:42.251Z,102475.81
2023-02-08T22:48:11.186Z,102470.78
2023-02-08T22:50:39.769Z,102463.97
2023-02-08T22:53:08.178Z,102461.47
2023-02-08T22:55:37.958Z,102462.13
2023-02-08T22:58:06.515Z,102464.19
2023-02-08T23:00:35.132Z,102469.53
2023-02-08T23:03:03.856Z,102464.84
2023-02-08T23:05:32.427Z,102465.53
2023-02-08T23:08:00.863Z,102465.03
2023-02-08T23:10:29.449Z,102455.81
2023-02-08T23:12:59.258Z,102451.94
2023-02-08T23:15:27.938Z,102450.13
2023-02-08T23:17:58.078Z,102443.75
2023-02-08T23:20:31.847Z,102453.47
2023-02-08T23:23:00.455Z,102445.78
2023-02-08T23:25:29.039Z,102442.09
2023-02-08T23:27:59.272Z,102444.09
2023-02-08T23:30:28.083Z,102442.41
2023-02-08T23:32:56.818Z,102434.53
2023-02-08T23:35:25.406Z,102418.31
2023-02-08T23:37:53.916Z,102427.00
2023-02-08T23:40:22.791Z,102417.81
2023-02-08T23:42:51.300Z,102425.34
2023-02-08T23:45:21.579Z,102429.84
2023-02-08T23:47:50.052Z,102426.50
2023-02-08T23:50:18.515Z,102422.16
2023-02-08T23:52:47.101Z,102425.31
2023-02-08T23:55:15.514Z,102423.16
2023-02-08T23:57:44.054Z,102423.31
